Terminal Aerodrome Forecast
Issued by NWS

Home | Current Version | Previous Version | Text Only | Print | Product List | Glossary On
Versions: 1 2 3 4 5 6 7 8 9 10 11 12 13 14 15 16 17 18 19 20 21 22 23 24 25
961
FTUS44 KTSA 260520
TAFRVS
TAF
KRVS 260520Z 2606/2706 18008KT P6SM SCT025 BKN040 WS020/18040KT
     FM261200 17010KT P6SM BKN025 WS020/18040KT
     FM261800 17010G20KT P6SM BKN025
     FM262000 17012G22KT P6SM BKN035 PROB30 2700/2706 3SM TSRA
      BKN025CB=

USA.gov is the U.S. government's official web portal to all federal, state and local government web resources and services.